createdAt,value
2023-02-24T00:02:00.213Z,38.50
2023-02-24T00:04:30.429Z,37.07
2023-02-24T00:06:57.279Z,34.70
2023-02-24T00:09:26.600Z,36.20
2023-02-24T00:11:55.758Z,38.10
2023-02-24T00:14:24.710Z,36.40
2023-02-24T00:16:53.135Z,38.20
2023-02-24T00:19:23.469Z,39.77
2023-02-24T00:21:51.494Z,36.33
2023-02-24T00:24:18.840Z,38.20
2023-02-24T00:26:45.921Z,35.63
2023-02-24T00:29:13.481Z,37.40
2023-02-24T00:31:42.841Z,35.43
2023-02-24T00:34:12.527Z,35.17
2023-02-24T00:36:39.543Z,33.43
2023-02-24T00:39:09.701Z,34.67
2023-02-24T00:41:40.166Z,33.60
2023-02-24T00:44:13.267Z,33.60
2023-02-24T00:46:44.653Z,31.57
2023-02-24T00:49:18.906Z,33.37
2023-02-24T00:51:48.651Z,36.83
2023-02-24T00:54:16.916Z,36.73
2023-02-24T00:56:45.275Z,39.63
2023-02-24T00:59:14.278Z,36.93
2023-02-24T01:01:42.598Z,31.10
2023-02-24T01:04:12.647Z,26.93
2023-02-24T01:06:49.570Z,26.50
2023-02-24T01:09:19.464Z,21.43
2023-02-24T01:12:06.746Z,22.60
2023-02-24T01:14:35.517Z,18.73
2023-02-24T01:17:04.663Z,19.00
2023-02-24T01:19:34.157Z,19.37
2023-02-24T01:22:07.331Z,20.30
2023-02-24T01:24:38.012Z,17.97
2023-02-24T01:27:07.024Z,19.37
2023-02-24T01:29:39.645Z,19.07
2023-02-24T01:32:13.511Z,21.57
2023-02-24T01:34:42.403Z,21.60
2023-02-24T01:37:09.858Z,21.53
2023-02-24T01:39:36.587Z,21.43
2023-02-24T01:42:06.147Z,22.27
2023-02-24T01:44:33.161Z,23.17
2023-02-24T01:47:03.886Z,22.17
2023-02-24T01:49:37.945Z,23.50
2023-02-24T01:52:23.789Z,25.77
2023-02-24T01:54:59.978Z,25.90
2023-02-24T01:57:31.193Z,26.20
2023-02-24T02:00:10.985Z,28.67
2023-02-24T02:02:46.270Z,28.03
2023-02-24T02:05:14.132Z,26.83
2023-02-24T02:07:41.876Z,25.70
2023-02-24T02:10:11.786Z,24.13
2023-02-24T02:12:44.084Z,25.20
2023-02-24T02:15:13.435Z,25.87
2023-02-24T02:18:15.165Z,25.37
2023-02-24T02:21:11.902Z,27.63
2023-02-24T02:23:54.686Z,26.40
2023-02-24T02:26:58.990Z,28.80
2023-02-24T02:29:34.799Z,23.87
2023-02-24T02:32:32.330Z,27.20
2023-02-24T02:36:00.456Z,25.70
2023-02-24T02:38:42.978Z,25.60
2023-02-24T02:41:28.311Z,26.13
2023-02-24T02:44:12.162Z,27.77
2023-02-24T02:46:53.592Z,25.13
2023-02-24T02:49:38.792Z,26.00
2023-02-24T02:52:13.921Z,29.47
2023-02-24T02:54:56.087Z,27.20
2023-02-24T02:57:29.488Z,27.60
2023-02-24T03:00:13.734Z,28.97
2023-02-24T03:02:45.119Z,25.93
2023-02-24T03:05:17.395Z,27.13
2023-02-24T03:07:51.081Z,25.40
2023-02-24T03:10:27.371Z,23.00
2023-02-24T03:12:59.547Z,24.70
2023-02-24T03:15:30.274Z,25.07
2023-02-24T03:18:11.912Z,24.80
2023-02-24T03:20:52.833Z,26.70
2023-02-24T03:23:26.734Z,21.63
2023-02-24T03:26:01.518Z,25.10
2023-02-24T03:28:45.585Z,24.40
2023-02-24T03:31:27.593Z,23.83
2023-02-24T03:34:03.549Z,23.07
2023-02-24T03:36:31.362Z,23.17
2023-02-24T03:38:59.098Z,22.73
2023-02-24T03:41:38.596Z,24.10
2023-02-24T03:44:09.510Z,22.00
2023-02-24T03:46:36.524Z,21.40
2023-02-24T03:49:16.310Z,23.60
2023-02-24T03:52:12.451Z,23.10
2023-02-24T03:54:48.016Z,25.03
2023-02-24T03:57:26.795Z,22.07
2023-02-24T04:00:16.591Z,23.10
2023-02-24T04:02:44.783Z,23.57
2023-02-24T04:06:00.793Z,25.37
2023-02-24T04:08:31.035Z,23.23
2023-02-24T04:11:05.521Z,23.50
2023-02-24T04:13:43.978Z,23.33
2023-02-24T04:16:45.296Z,22.73
2023-02-24T04:19:17.238Z,23.37
2023-02-24T04:21:48.845Z,25.00
2023-02-24T04:24:25.346Z,23.50
2023-02-24T04:26:53.977Z,25.10
2023-02-24T04:29:23.932Z,23.40
2023-02-24T04:31:57.610Z,22.10
2023-02-24T04:34:26.184Z,19.90
2023-02-24T04:36:52.913Z,18.20
2023-02-24T04:39:23.229Z,17.87
2023-02-24T04:41:52.936Z,15.50
2023-02-24T04:44:21.330Z,14.43
2023-02-24T04:46:49.941Z,15.43
2023-02-24T04:49:17.928Z,13.47
2023-02-24T04:51:45.185Z,13.10
2023-02-24T04:54:17.146Z,11.43
2023-02-24T04:56:45.416Z,12.17
2023-02-24T04:59:12.118Z,12.40
2023-02-24T05:01:39.751Z,9.73
2023-02-24T05:04:08.272Z,9.73
2023-02-24T05:06:35.256Z,9.30
2023-02-24T05:09:11.259Z,9.30
2023-02-24T05:11:37.963Z,9.23
2023-02-24T05:14:04.666Z,8.43
2023-02-24T05:16:31.886Z,9.47
2023-02-24T05:19:17.206Z,8.20
2023-02-24T05:21:43.886Z,8.23
2023-02-24T05:24:11.143Z,9.17
2023-02-24T05:26:41.686Z,9.33
2023-02-24T05:29:09.258Z,8.10
2023-02-24T05:31:37.306Z,7.80
2023-02-24T05:34:07.506Z,8.63
2023-02-24T05:36:40.404Z,8.67
2023-02-24T05:39:12.131Z,7.40
2023-02-24T05:41:41.948Z,7.90
2023-02-24T05:44:15.941Z,9.10
2023-02-24T05:46:46.752Z,8.80
2023-02-24T05:49:23.327Z,7.50
2023-02-24T05:51:55.550Z,8.90
2023-02-24T05:54:25.834Z,13.57
2023-02-24T05:56:52.596Z,9.57
2023-02-24T05:59:21.367Z,9.97
2023-02-24T06:01:52.828Z,7.97
2023-02-24T06:04:38.848Z,9.90
2023-02-24T06:07:20.690Z,10.87
2023-02-24T06:09:53.418Z,8.83
2023-02-24T06:12:22.100Z,8.40
2023-02-24T06:14:48.901Z,9.33
2023-02-24T06:17:16.897Z,11.13
2023-02-24T06:19:44.699Z,8.27
2023-02-24T06:22:13.774Z,8.10
2023-02-24T06:24:44.276Z,8.00
2023-02-24T06:27:18.529Z,7.80
2023-02-24T06:29:49.735Z,9.50
2023-02-24T06:32:21.593Z,7.60
2023-02-24T06:34:48.349Z,8.50
2023-02-24T06:37:16.161Z,9.20
2023-02-24T06:39:44.782Z,7.60
2023-02-24T06:42:12.756Z,8.53
2023-02-24T06:44:41.188Z,10.47
2023-02-24T06:47:12.903Z,8.80
2023-02-24T06:49:39.840Z,7.40
2023-02-24T06:52:06.517Z,8.60
2023-02-24T06:54:35.749Z,7.43
2023-02-24T06:57:03.791Z,7.43
2023-02-24T06:59:32.206Z,8.03
2023-02-24T07:02:01.712Z,8.70
2023-02-24T07:04:29.145Z,7.87
2023-02-24T07:07:02.980Z,8.93
2023-02-24T07:09:31.218Z,9.43
2023-02-24T07:11:58.688Z,8.80
2023-02-24T07:14:28.003Z,7.57
2023-02-24T07:16:55.648Z,7.50
2023-02-24T07:19:25.792Z,7.80
2023-02-24T07:21:59.862Z,8.80
2023-02-24T07:24:36.180Z,9.80
2023-02-24T07:27:06.621Z,9.63
2023-02-24T07:29:35.354Z,9.43
2023-02-24T07:32:05.485Z,8.57
2023-02-24T07:34:33.652Z,8.80
2023-02-24T07:37:06.503Z,10.57
2023-02-24T07:39:33.637Z,10.10
2023-02-24T07:42:00.333Z,10.03
2023-02-24T07:44:29.247Z,11.17
2023-02-24T07:46:59.010Z,10.57
2023-02-24T07:49:27.811Z,10.13
2023-02-24T07:51:57.578Z,9.67
2023-02-24T07:54:27.213Z,10.40
2023-02-24T07:56:57.061Z,10.53
2023-02-24T07:59:35.084Z,9.30
2023-02-24T08:02:04.588Z,10.10
2023-02-24T08:04:32.830Z,9.60
2023-02-24T08:07:02.832Z,9.60
2023-02-24T08:09:46.663Z,9.00
2023-02-24T08:12:21.044Z,9.20
2023-02-24T08:14:52.459Z,10.43
2023-02-24T08:17:21.947Z,11.73
2023-02-24T08:19:50.840Z,12.37
2023-02-24T08:22:20.620Z,13.17
2023-02-24T08:24:50.788Z,12.77
2023-02-24T08:27:21.798Z,13.27
2023-02-24T08:30:00.023Z,12.20
2023-02-24T08:32:34.016Z,12.37
2023-02-24T08:35:04.945Z,10.07
2023-02-24T08:37:39.438Z,9.27
2023-02-24T08:40:31.413Z,9.90
2023-02-24T08:42:59.724Z,9.80
2023-02-24T08:45:33.324Z,7.83
2023-02-24T08:48:00.531Z,8.37
2023-02-24T08:50:33.771Z,6.40
2023-02-24T08:53:03.264Z,5.83
2023-02-24T08:55:32.887Z,7.13
2023-02-24T08:58:01.624Z,6.67
2023-02-24T09:00:49.858Z,5.47
2023-02-24T09:03:38.764Z,5.20
2023-02-24T09:06:09.052Z,5.80
2023-02-24T09:08:38.648Z,5.63
2023-02-24T09:11:13.786Z,6.73
2023-02-24T09:13:51.732Z,15.37
2023-02-24T09:16:20.719Z,6.67
2023-02-24T09:19:08.108Z,6.30
2023-02-24T09:21:50.256Z,5.60
2023-02-24T09:24:26.969Z,4.40
2023-02-24T09:26:58.432Z,4.73
2023-02-24T09:29:35.601Z,4.63
2023-02-24T09:32:05.235Z,4.10
2023-02-24T09:34:46.118Z,3.90
2023-02-24T09:37:27.096Z,3.87
2023-02-24T09:39:57.606Z,4.03
2023-02-24T09:42:34.396Z,3.90
2023-02-24T09:45:11.494Z,3.97
2023-02-24T09:47:56.822Z,5.00
2023-02-24T09:51:04.108Z,4.07
2023-02-24T09:53:41.214Z,6.00
2023-02-24T09:56:42.253Z,6.63
2023-02-24T09:59:26.778Z,6.00
2023-02-24T10:01:57.277Z,6.50
2023-02-24T10:04:48.894Z,7.63
2023-02-24T10:07:36.076Z,7.13
2023-02-24T10:10:25.515Z,8.03
2023-02-24T10:13:15.138Z,6.50
2023-02-24T10:15:57.697Z,8.07
2023-02-24T10:18:33.493Z,8.30
2023-02-24T10:21:48.079Z,8.03
2023-02-24T10:24:29.716Z,7.43
2023-02-24T10:27:09.289Z,8.77
2023-02-24T10:29:51.062Z,7.60
2023-02-24T10:32:33.757Z,7.30
2023-02-24T10:35:02.096Z,7.33
2023-02-24T10:37:30.023Z,7.67
2023-02-24T10:40:09.414Z,8.43
2023-02-24T10:42:44.358Z,9.03
2023-02-24T10:45:24.561Z,8.93
2023-02-24T10:47:57.219Z,8.70
2023-02-24T10:50:34.925Z,8.33
2023-02-24T10:53:33.896Z,10.17
2023-02-24T10:56:26.511Z,8.33
2023-02-24T10:59:20.715Z,8.50
2023-02-24T11:01:59.191Z,7.37
2023-02-24T11:04:53.981Z,7.13
2023-02-24T11:07:39.828Z,7.83
2023-02-24T11:10:26.084Z,7.20
2023-02-24T11:13:13.623Z,7.30
2023-02-24T11:16:06.290Z,7.70
2023-02-24T11:18:33.995Z,7.10
2023-02-24T11:21:04.320Z,7.17
2023-02-24T11:23:35.907Z,7.50
2023-02-24T11:26:12.181Z,8.03
2023-02-24T11:29:17.442Z,6.70
2023-02-24T11:31:56.333Z,7.80
2023-02-24T11:34:37.218Z,6.50
2023-02-24T11:37:34.516Z,8.43
2023-02-24T11:40:08.524Z,7.23
2023-02-24T11:43:07.320Z,9.00
2023-02-24T11:45:50.849Z,8.50
2023-02-24T11:48:34.941Z,9.30
2023-02-24T11:51:20.469Z,7.63
2023-02-24T11:54:06.194Z,8.50
2023-02-24T11:56:44.009Z,9.70
2023-02-24T11:59:39.622Z,8.50
2023-02-24T12:02:26.984Z,8.57
2023-02-24T12:05:02.986Z,8.20
2023-02-24T12:07:34.862Z,10.83
2023-02-24T12:10:17.818Z,10.60
2023-02-24T12:12:48.952Z,10.87
2023-02-24T12:15:48.585Z,10.70
2023-02-24T12:18:35.889Z,11.00
2023-02-24T12:21:30.432Z,8.87
2023-02-24T12:23:59.365Z,8.50
2023-02-24T12:26:42.641Z,7.70
2023-02-24T12:29:16.317Z,7.40
2023-02-24T12:31:53.440Z,6.20
2023-02-24T12:35:00.993Z,7.20
2023-02-24T12:37:33.542Z,6.53
2023-02-24T12:40:22.431Z,5.77
2023-02-24T12:43:08.544Z,6.90
2023-02-24T12:45:50.521Z,7.03
2023-02-24T12:48:37.046Z,5.80
2023-02-24T12:51:07.223Z,6.77
2023-02-24T12:53:58.229Z,6.80
2023-02-24T12:56:36.469Z,6.70
2023-02-24T12:59:06.250Z,7.33
2023-02-24T13:01:45.089Z,7.47
2023-02-24T13:04:36.499Z,65.57
2023-02-24T13:07:40.373Z,9.00
2023-02-24T13:10:36.573Z,7.47
2023-02-24T13:13:33.527Z,7.97
2023-02-24T13:16:00.499Z,20.10
2023-02-24T13:18:33.148Z,12.73
2023-02-24T13:21:15.119Z,9.90
2023-02-24T13:23:52.364Z,8.53
2023-02-24T13:26:26.186Z,9.20
2023-02-24T13:29:12.734Z,12.30
2023-02-24T13:31:48.926Z,8.70
2023-02-24T13:34:32.635Z,9.00
2023-02-24T13:36:59.638Z,10.87
2023-02-24T13:39:35.042Z,9.20
2023-02-24T13:42:28.731Z,9.10
2023-02-24T13:45:10.637Z,8.47
2023-02-24T13:48:15.315Z,10.43
2023-02-24T13:51:12.332Z,9.77
2023-02-24T13:53:57.699Z,8.63
2023-02-24T13:56:36.571Z,10.80
2023-02-24T13:59:24.586Z,10.53
2023-02-24T14:02:01.271Z,11.47
2023-02-24T14:04:31.669Z,11.67
2023-02-24T14:07:03.295Z,11.30
2023-02-24T14:10:05.444Z,10.97
2023-02-24T14:12:35.203Z,10.63
2023-02-24T14:15:03.447Z,11.00
2023-02-24T14:17:30.062Z,10.20
2023-02-24T14:20:09.107Z,11.20
2023-02-24T14:22:44.143Z,9.30
2023-02-24T14:25:12.252Z,10.40
2023-02-24T14:27:39.800Z,9.97
2023-02-24T14:30:08.339Z,9.17
2023-02-24T14:32:35.332Z,10.67
2023-02-24T14:35:02.072Z,9.73
2023-02-24T14:37:31.151Z,11.10
2023-02-24T14:40:00.017Z,12.17
2023-02-24T14:42:27.903Z,10.33
2023-02-24T14:44:56.995Z,14.37
2023-02-24T14:47:26.512Z,10.90
2023-02-24T14:49:59.569Z,12.67
2023-02-24T14:52:48.287Z,13.83
2023-02-24T14:55:19.807Z,13.20
2023-02-24T14:58:05.001Z,13.60
2023-02-24T15:00:47.083Z,13.27
2023-02-24T15:03:35.359Z,13.80
2023-02-24T15:06:13.443Z,15.90
2023-02-24T15:09:02.535Z,17.80
2023-02-24T15:11:31.500Z,18.10
2023-02-24T15:14:08.229Z,16.40
2023-02-24T15:16:44.157Z,15.33
2023-02-24T15:19:46.366Z,15.93
2023-02-24T15:22:28.898Z,14.20
2023-02-24T15:25:15.793Z,14.43
2023-02-24T15:28:03.126Z,10.63
2023-02-24T15:30:36.422Z,10.20
2023-02-24T15:33:15.668Z,9.80
2023-02-24T15:35:50.004Z,9.83
2023-02-24T15:38:36.401Z,9.73
2023-02-24T15:41:06.058Z,11.07
2023-02-24T15:43:38.293Z,9.77
2023-02-24T15:46:30.090Z,10.60
2023-02-24T15:49:01.572Z,16.40
2023-02-24T15:51:41.754Z,15.33
2023-02-24T15:54:13.411Z,12.27
2023-02-24T15:56:41.276Z,13.53
2023-02-24T15:59:12.624Z,11.97
2023-02-24T16:01:39.298Z,12.33
2023-02-24T16:04:09.264Z,13.00
2023-02-24T16:06:42.080Z,13.50
2023-02-24T16:09:14.513Z,12.57
2023-02-24T16:11:45.096Z,13.33
2023-02-24T16:14:15.872Z,13.13
2023-02-24T16:16:42.738Z,15.40
2023-02-24T16:19:15.230Z,15.00
2023-02-24T16:21:42.546Z,15.70
2023-02-24T16:24:09.521Z,17.73
2023-02-24T16:26:39.047Z,19.57
2023-02-24T16:29:11.503Z,20.10
2023-02-24T16:31:39.955Z,19.60
2023-02-24T16:34:07.962Z,22.67
2023-02-24T16:36:35.434Z,19.90
2023-02-24T16:39:02.122Z,18.40
2023-02-24T16:41:30.929Z,22.27
2023-02-24T16:43:57.593Z,23.40
2023-02-24T16:46:25.259Z,21.97
2023-02-24T16:48:53.345Z,21.73
2023-02-24T16:51:21.648Z,22.00
2023-02-24T16:53:48.295Z,21.60
2023-02-24T16:56:15.600Z,20.10
2023-02-24T16:58:42.502Z,26.10
2023-02-24T17:01:18.006Z,24.03
2023-02-24T17:03:51.171Z,21.90
2023-02-24T17:06:19.770Z,24.20
2023-02-24T17:08:48.950Z,23.50
2023-02-24T17:11:20.862Z,20.97
2023-02-24T17:13:47.514Z,18.60
2023-02-24T17:16:14.339Z,20.87
2023-02-24T17:18:41.046Z,19.87
2023-02-24T17:21:07.746Z,21.27
2023-02-24T17:23:34.530Z,21.17
2023-02-24T17:26:02.352Z,20.83
2023-02-24T17:28:29.374Z,22.70
2023-02-24T17:30:56.345Z,22.03
2023-02-24T17:33:23.318Z,23.50
2023-02-24T17:35:50.441Z,20.20
2023-02-24T17:38:20.000Z,21.47
2023-02-24T17:40:47.012Z,21.57
2023-02-24T17:43:14.004Z,20.30
2023-02-24T17:45:44.858Z,24.20
2023-02-24T17:48:13.096Z,23.73
2023-02-24T17:50:44.511Z,22.07
2023-02-24T17:53:11.635Z,21.17
2023-02-24T17:55:55.772Z,21.60
2023-02-24T17:58:27.424Z,22.43
2023-02-24T18:00:54.346Z,22.37
2023-02-24T18:03:21.103Z,24.20
2023-02-24T18:05:48.329Z,20.57
2023-02-24T18:08:14.980Z,22.70
2023-02-24T18:10:42.141Z,22.97
2023-02-24T18:13:08.778Z,24.53
2023-02-24T18:15:38.572Z,23.70
2023-02-24T18:18:05.362Z,22.33
2023-02-24T18:20:32.031Z,20.80
2023-02-24T18:22:58.701Z,22.70
2023-02-24T18:25:25.377Z,19.87
2023-02-24T18:27:52.107Z,20.70
2023-02-24T18:30:19.350Z,22.40
2023-02-24T18:32:47.226Z,20.37
2023-02-24T18:35:15.725Z,22.27
2023-02-24T18:37:42.841Z,20.70
2023-02-24T18:40:10.230Z,20.20
2023-02-24T18:42:37.571Z,18.37
2023-02-24T18:45:04.555Z,20.20
2023-02-24T18:47:31.270Z,18.40
2023-02-24T18:49:57.881Z,22.47
2023-02-24T18:52:24.576Z,19.83
2023-02-24T18:54:52.933Z,17.50
2023-02-24T18:57:20.184Z,19.60
2023-02-24T18:59:50.663Z,18.60
2023-02-24T19:02:17.825Z,18.50
2023-02-24T19:04:45.859Z,18.50
2023-02-24T19:07:13.525Z,15.20
2023-02-24T19:09:41.838Z,17.30
2023-02-24T19:12:09.139Z,18.20
2023-02-24T19:14:37.104Z,22.90
2023-02-24T19:17:03.850Z,19.73
2023-02-24T19:19:30.507Z,15.70
2023-02-24T19:21:57.334Z,18.20
2023-02-24T19:24:24.024Z,16.87
2023-02-24T19:26:52.515Z,17.93
2023-02-24T19:29:20.364Z,14.67
2023-02-24T19:31:47.330Z,14.33
2023-02-24T19:34:15.371Z,11.37
2023-02-24T19:36:42.147Z,8.60
2023-02-24T19:39:12.075Z,6.40
2023-02-24T19:41:38.808Z,3.90
2023-02-24T19:44:05.494Z,4.77
2023-02-24T19:46:33.986Z,4.10
2023-02-24T19:49:00.976Z,4.00
2023-02-24T19:51:28.160Z,3.60
2023-02-24T19:53:57.245Z,3.87
2023-02-24T19:56:29.708Z,3.60
2023-02-24T19:58:58.455Z,3.80
2023-02-24T20:01:26.732Z,4.17
2023-02-24T20:03:59.412Z,3.73
2023-02-24T20:06:35.628Z,3.77
2023-02-24T20:09:06.405Z,5.03
2023-02-24T20:11:36.116Z,5.70
2023-02-24T20:14:02.957Z,5.63
2023-02-24T20:16:34.374Z,7.30
2023-02-24T20:19:02.185Z,7.90
2023-02-24T20:21:29.873Z,7.40
2023-02-24T20:24:02.733Z,7.10
2023-02-24T20:26:30.046Z,8.60
2023-02-24T20:28:57.089Z,8.20
2023-02-24T20:31:24.337Z,7.80
2023-02-24T20:33:51.382Z,9.00
2023-02-24T20:36:24.549Z,7.70
2023-02-24T20:38:52.533Z,8.10
2023-02-24T20:41:20.767Z,10.60
2023-02-24T20:43:48.503Z,10.87
2023-02-24T20:46:17.175Z,11.50
2023-02-24T20:48:44.720Z,13.70
2023-02-24T20:51:12.540Z,15.87
2023-02-24T20:53:55.681Z,14.37
2023-02-24T20:56:24.639Z,15.13
2023-02-24T20:58:53.953Z,13.90
2023-02-24T21:01:21.223Z,13.17
2023-02-24T21:03:48.297Z,10.07
2023-02-24T21:06:16.963Z,11.47
2023-02-24T21:08:44.379Z,11.73
2023-02-24T21:11:12.332Z,10.47
2023-02-24T21:13:43.782Z,8.80
2023-02-24T21:16:12.543Z,9.43
2023-02-24T21:18:41.263Z,8.77
2023-02-24T21:21:09.202Z,7.50
2023-02-24T21:23:37.141Z,8.00
2023-02-24T21:26:04.731Z,7.10
2023-02-24T21:28:31.396Z,6.47
2023-02-24T21:30:58.358Z,6.27
2023-02-24T21:33:25.272Z,5.70
2023-02-24T21:36:09.191Z,5.50
2023-02-24T21:38:36.899Z,6.20
2023-02-24T21:41:07.001Z,6.30
2023-02-24T21:43:33.925Z,5.57
2023-02-24T21:46:08.932Z,5.30
2023-02-24T21:48:36.888Z,6.00
2023-02-24T21:51:06.158Z,5.80
2023-02-24T21:53:35.252Z,5.87
2023-02-24T21:56:04.093Z,6.40
2023-02-24T21:58:32.175Z,8.60
2023-02-24T22:00:59.390Z,6.07
2023-02-24T22:03:26.204Z,6.90
2023-02-24T22:05:54.246Z,6.73
2023-02-24T22:08:20.939Z,6.00
2023-02-24T22:10:58.549Z,6.30
2023-02-24T22:13:25.748Z,5.80
2023-02-24T22:15:52.477Z,6.87
2023-02-24T22:18:21.169Z,6.33
2023-02-24T22:20:47.951Z,6.43
2023-02-24T22:23:14.626Z,7.40
2023-02-24T22:25:41.360Z,7.27
2023-02-24T22:28:08.254Z,8.03
2023-02-24T22:30:34.931Z,8.17
2023-02-24T22:33:01.661Z,9.27
2023-02-24T22:35:28.324Z,7.30
2023-02-24T22:37:55.056Z,7.35
2023-02-24T22:40:21.764Z,8.17
2023-02-24T22:42:48.465Z,7.47
2023-02-24T22:45:15.171Z,7.80
2023-02-24T22:47:41.884Z,6.97
2023-02-24T22:50:09.499Z,7.83
2023-02-24T22:52:36.140Z,7.20
2023-02-24T22:55:02.839Z,5.70
2023-02-24T22:57:32.597Z,5.30
2023-02-24T22:59:59.585Z,5.30
2023-02-24T23:02:26.357Z,5.50
2023-02-24T23:04:53.224Z,5.13
2023-02-24T23:07:20.109Z,3.83
2023-02-24T23:09:52.674Z,5.60
2023-02-24T23:12:20.501Z,4.87
2023-02-24T23:14:47.202Z,4.53
2023-02-24T23:17:13.910Z,4.23
2023-02-24T23:19:40.551Z,4.00
2023-02-24T23:22:07.951Z,4.97
2023-02-24T23:24:34.640Z,3.63
2023-02-24T23:27:01.347Z,4.00
2023-02-24T23:29:28.088Z,5.97
2023-02-24T23:31:55.122Z,4.97
2023-02-24T23:34:21.947Z,6.03
2023-02-24T23:36:48.727Z,4.17
2023-02-24T23:39:18.193Z,4.03
2023-02-24T23:41:45.355Z,4.67
2023-02-24T23:44:12.657Z,4.97
2023-02-24T23:46:41.562Z,3.60
2023-02-24T23:49:08.304Z,4.00
2023-02-24T23:51:47.583Z,3.80
2023-02-24T23:54:16.959Z,4.57
2023-02-24T23:56:43.655Z,6.80
2023-02-24T23:59:11.026Z,4.83
